Sheridan, WY (82801)

4:33 PM MST on February 06, 2016 (GMT -0700)
South Sheridan | | Change Station
CLOSE
Current Station
Personal Weather Station
Location: Sheridan, WY
Elevation: 3770 ft
Nearby Weather Stations

Elev 3770 ft 44.79 °N, 106.95 °W | Updated 0 second ago

Clear
Clear
42.4 °F
Feels Like 42 °F
N
1.1
Wind Variable Wind from South
Gusts 2.5 mph

Today
High -- | Low -- °F
--% Chance of Precip.
Yesterday
High -- | Low -- °F
Precip. -- in
Pressure 30.08 in
Visibility -9999.0 miles
Clouds Clear
Windchill 42 °F
Dew Point 26 °F
Humidity 52%
Rainfall 0.02 in
Snow Depth Not available.
7:21 AM 5:22 PM
Waning Crescent, 4% visible
METAR KSHR 062253Z AUTO 32018KT CLR 04/M04 A2999 RMK AO2 PK WND 33028/2212 SLP184 T00391039 $
Pressure 30.08 in
Visibility -9999.0 miles
Clouds Clear
Windchill 42 °F
Dew Point 26 °F
Humidity 52%
Rainfall 0.02 in
Snow Depth Not available.
7:21 AM 5:22 PM
Waning Crescent, 4% visible
METAR KSHR 062253Z AUTO 32018KT CLR 04/M04 A2999 RMK AO2 PK WND 33028/2212 SLP184 T00391039 $

10-Day Weather Forecast

Almanac

Astronomy

Feb. 06, 2016 Rise Set
Actual Time
Civil Twilight
Nautical Twilight
Astronomical Twilight
Moon
Length of Visible Light
Length of Day
Tomorrow will be .
, % of the Moon is Illuminated

Today's Extremes

State Highs State Lows

Community

WunderPhotos

Upload Photos

1,891,098 photos uploaded!

WunderBlog® & News

Nearby

Air Quality

  Air Quality AQ Index Pollutant
Not available.

Snow Depth

Station Depth Elevation

Earthquake Activity

City Distance Mag. Time & Date
Minimum magnitude displayed is 2.5.

Coastal Water Temperatures

Place Temperature

Stations

Nearby Weather Stations

Station Location Temp. Windchill Dew Point Humidity Wind Precip. Elev Updated Type
                   

Watches & Warnings

There are currently no watches in effect.